Time;durP1;ratioP1;P1;durP2;ratioP2;P2;SDS_P1;SDS_P2;PMS_P1;PMS_P2;Temp;Humidity;BMP_temperature;BMP_pressure;BME280_temperature;BME280_humidity;BME280_pressure;Samples;Min_cycle;Max_cycle;Signal;HPM_P1;HPM_P2
2023/12/02 00:02:16;;;;;;;27.73;17.73;;;0.40;39.30;;;;;;4975805;28;20224;-68
2023/12/02 00:04:42;;;;;;;26.97;16.83;;;0.30;39.00;;;;;;4975593;28;20181;-68
2023/12/02 00:07:08;;;;;;;26.17;16.10;;;0.40;39.40;;;;;;4975412;28;20181;-69
2023/12/02 00:09:34;;;;;;;26.45;16.95;;;0.40;39.40;;;;;;4975303;28;20209;-68
2023/12/02 00:12:00;;;;;;;23.80;15.90;;;0.40;39.70;;;;;;4975566;28;20619;-68
2023/12/02 00:14:25;;;;;;;27.33;16.70;;;0.40;40.00;;;;;;4975365;28;20181;-68
2023/12/02 00:16:51;;;;;;;26.43;18.17;;;0.40;39.30;;;;;;4975134;28;20701;-69
2023/12/02 00:19:16;;;;;;;34.37;19.10;;;0.40;39.50;;;;;;4970117;28;20221;-68
2023/12/02 00:21:42;;;;;;;28.30;15.63;;;0.40;39.90;;;;;;4966146;28;20181;-69
2023/12/02 00:24:07;;;;;;;24.20;16.40;;;0.40;40.50;;;;;;4955813;29;20658;-69
2023/12/02 00:26:33;;;;;;;22.27;14.70;;;0.50;40.60;;;;;;4955473;28;20190;-68
2023/12/02 00:28:58;;;;;;;23.23;16.00;;;0.50;39.40;;;;;;4955725;28;20288;-68
2023/12/02 00:31:24;;;;;;;25.17;17.20;;;0.50;39.50;;;;;;4955774;28;20182;-68
2023/12/02 00:33:49;;;;;;;28.00;18.47;;;0.50;40.10;;;;;;4955727;29;20186;-68
2023/12/02 00:36:15;;;;;;;25.17;17.10;;;0.60;38.90;;;;;;4955407;29;20206;-69
2023/12/02 00:38:40;;;;;;;27.87;17.73;;;0.50;38.20;;;;;;4955393;28;20233;-68
2023/12/02 00:41:10;;;;;;;27.20;17.00;;;0.50;38.70;;;;;;4955639;29;20178;-69
2023/12/02 00:43:35;;;;;;;25.85;17.13;;;0.60;38.90;;;;;;4955600;28;20554;-68
2023/12/02 00:46:01;;;;;;;35.47;19.87;;;0.60;38.40;;;;;;4955382;28;20178;-68
2023/12/02 00:48:26;;;;;;;28.03;18.07;;;0.60;36.50;;;;;;4954046;28;20693;-68
2023/12/02 00:50:52;;;;;;;23.37;15.63;;;0.50;36.40;;;;;;4954217;29;20194;-68
2023/12/02 00:53:17;;;;;;;27.13;16.77;;;0.50;36.20;;;;;;4955390;29;20206;-68
2023/12/02 00:55:43;;;;;;;31.03;18.60;;;0.50;36.50;;;;;;4955291;29;20206;-68
2023/12/02 00:58:09;;;;;;;30.87;17.53;;;0.40;36.10;;;;;;4955359;28;20280;-68
2023/12/02 01:00:34;;;;;;;22.80;15.03;;;0.40;37.60;;;;;;4955348;29;20185;-68
2023/12/02 01:03:00;;;;;;;28.33;16.53;;;0.40;37.00;;;;;;4955724;29;20185;-68
2023/12/02 01:05:25;;;;;;;27.63;17.50;;;0.30;36.40;;;;;;4955063;29;20265;-68
2023/12/02 01:07:51;;;;;;;24.23;17.83;;;0.30;37.10;;;;;;4955596;28;20197;-68
2023/12/02 01:10:17;;;;;;;24.37;16.50;;;0.30;37.80;;;;;;4955614;29;20186;-68
2023/12/02 01:12:43;;;;;;;31.03;18.53;;;0.20;37.90;;;;;;4955098;29;20185;-67
2023/12/02 01:15:09;;;;;;;30.20;20.83;;;0.20;38.60;;;;;;4961973;28;20526;-68
2023/12/02 01:17:34;;;;;;;27.87;17.90;;;0.20;39.20;;;;;;4954812;28;20292;-67
2023/12/02 01:20:00;;;;;;;30.13;19.07;;;0.20;39.00;;;;;;4954878;29;20186;-67
2023/12/02 01:22:25;;;;;;;29.70;18.50;;;0.20;39.20;;;;;;4969663;28;20253;-67
2023/12/02 01:24:51;;;;;;;30.67;18.20;;;0.20;39.70;;;;;;4954793;29;20174;-67
2023/12/02 01:27:16;;;;;;;31.80;20.10;;;0.20;39.20;;;;;;4954678;29;20178;-67
2023/12/02 01:29:42;;;;;;;26.50;16.97;;;0.20;41.10;;;;;;4954636;28;20190;-67
2023/12/02 01:32:08;;;;;;;31.13;19.53;;;0.30;40.20;;;;;;4954857;29;20182;-67
2023/12/02 01:34:33;;;;;;;28.03;19.20;;;0.30;39.20;;;;;;4954707;29;20178;-68
2023/12/02 01:36:59;;;;;;;33.87;19.80;;;0.30;39.20;;;;;;4954419;29;20209;-67
2023/12/02 01:39:26;;;;;;;31.23;19.73;;;0.30;39.30;;;;;;4953200;29;20200;-68
2023/12/02 01:41:51;;;;;;;35.97;21.17;;;0.30;39.90;;;;;;4954209;28;20598;-68
2023/12/02 01:44:17;;;;;;;38.60;20.47;;;0.20;39.20;;;;;;4953287;29;20205;-68
2023/12/02 01:46:42;;;;;;;32.30;18.20;;;0.20;40.00;;;;;;4954247;29;20252;-68
2023/12/02 01:49:08;;;;;;;31.50;18.80;;;0.30;40.00;;;;;;4954247;28;20224;-68
2023/12/02 01:51:34;;;;;;;28.25;18.98;;;0.30;40.00;;;;;;4954331;28;20720;-68
2023/12/02 01:54:00;;;;;;;32.05;17.80;;;0.30;39.20;;;;;;4954358;28;20185;-68
2023/12/02 01:56:26;;;;;;;31.97;19.30;;;0.30;39.20;;;;;;4954109;28;20585;-68
2023/12/02 01:58:51;;;;;;;30.83;18.60;;;0.40;39.30;;;;;;4952864;28;20205;-68
2023/12/02 02:01:17;;;;;;;29.50;18.37;;;0.30;39.30;;;;;;4954219;29;20174;-68
2023/12/02 02:03:43;;;;;;;31.17;19.30;;;0.30;39.20;;;;;;4954184;28;20705;-68
2023/12/02 02:06:09;;;;;;;28.90;18.50;;;0.30;39.20;;;;;;4953898;29;20912;-68
2023/12/02 02:08:35;;;;;;;31.58;18.98;;;0.30;38.70;;;;;;4953951;28;20243;-68
2023/12/02 02:11:01;;;;;;;26.30;15.60;;;0.30;38.80;;;;;;4954020;29;20190;-68
2023/12/02 02:13:27;;;;;;;27.17;18.23;;;0.30;37.90;;;;;;4954061;29;20185;-68
2023/12/02 02:15:53;;;;;;;25.17;17.95;;;0.30;38.10;;;;;;4971078;28;20205;-68
2023/12/02 02:18:19;;;;;;;28.00;18.00;;;0.30;38.30;;;;;;4973203;28;20263;-68
2023/12/02 02:20:51;;;;;;;28.20;17.03;;;0.30;38.70;;;;;;4973052;28;20474;-68
2023/12/02 02:23:22;;;;;;;30.35;19.50;;;0.30;38.30;;;;;;4973105;28;20256;-68
2023/12/02 02:25:52;;;;;;;28.35;18.05;;;0.20;37.90;;;;;;4973033;28;20188;-68
2023/12/02 02:28:25;;;;;;;26.58;17.15;;;0.30;38.80;;;;;;4973759;28;20677;-68
2023/12/02 02:30:52;;;;;;;29.95;18.48;;;0.30;37.50;;;;;;4973043;28;20189;-68
2023/12/02 02:33:18;;;;;;;24.73;16.13;;;0.30;36.70;;;;;;4973144;28;20267;-68
2023/12/02 02:35:44;;;;;;;25.25;14.90;;;0.20;36.60;;;;;;4972715;28;20559;-68
2023/12/02 02:38:10;;;;;;;26.58;17.83;;;0.10;37.10;;;;;;4972981;28;20193;-68
2023/12/02 02:40:36;;;;;;;25.58;17.33;;;0.10;36.30;;;;;;4972981;28;20609;-68
2023/12/02 02:43:02;;;;;;;29.73;17.47;;;0.10;36.60;;;;;;4972983;28;20264;-68
2023/12/02 02:45:27;;;;;;;26.80;17.00;;;0.00;36.50;;;;;;4971418;28;20435;-68
2023/12/02 02:47:53;;;;;;;33.90;19.17;;;0.00;36.80;;;;;;4972624;28;20707;-68
2023/12/02 02:50:19;;;;;;;31.77;19.00;;;0.00;36.50;;;;;;4972936;28;20185;-68
2023/12/02 02:52:46;;;;;;;29.48;17.40;;;-0.10;37.20;;;;;;4972702;28;20178;-68
2023/12/02 02:55:11;;;;;;;31.67;18.20;;;-0.10;37.70;;;;;;4975612;28;20184;-68
2023/12/02 02:57:37;;;;;;;27.43;18.40;;;0.00;39.00;;;;;;4976646;28;20217;-69
2023/12/02 03:00:09;;;;;;;29.50;18.60;;;0.00;38.50;;;;;;4976662;28;20173;-68
2023/12/02 03:02:36;;;;;;;32.47;20.30;;;0.00;38.00;;;;;;4976662;28;20174;-68
2023/12/02 03:05:01;;;;;;;32.72;18.10;;;0.00;37.80;;;;;;4976502;28;20252;-68
2023/12/02 03:07:27;;;;;;;28.23;15.87;;;0.00;37.10;;;;;;4976624;28;20284;-68
2023/12/02 03:09:52;;;;;;;28.60;17.20;;;-0.10;37.10;;;;;;4976456;28;20536;-68
2023/12/02 03:12:18;;;;;;;28.37;19.03;;;-0.10;37.50;;;;;;4976550;28;20230;-68
2023/12/02 03:14:43;;;;;;;30.03;19.73;;;-0.10;37.50;;;;;;4976199;28;20220;-68
2023/12/02 03:17:09;;;;;;;28.30;18.00;;;-0.20;37.90;;;;;;4976147;28;20201;-68
2023/12/02 03:19:34;;;;;;;34.30;19.87;;;-0.20;37.80;;;;;;4976366;28;20206;-68
2023/12/02 03:22:02;;;;;;;30.57;18.20;;;-0.20;38.20;;;;;;4976421;28;20208;-68
2023/12/02 03:24:27;;;;;;;30.58;17.17;;;-0.20;38.20;;;;;;4976317;28;20173;-69
2023/12/02 03:26:53;;;;;;;34.47;16.63;;;-0.20;38.50;;;;;;4976098;28;20185;-68
2023/12/02 03:29:18;;;;;;;32.37;18.03;;;-0.30;38.50;;;;;;4976106;28;20706;-68
2023/12/02 03:31:44;;;;;;;33.50;18.43;;;-0.20;38.90;;;;;;4976248;28;20180;-68
2023/12/02 03:34:09;;;;;;;38.03;21.17;;;-0.30;38.70;;;;;;4976072;28;20184;-68
2023/12/02 03:36:35;;;;;;;32.17;18.60;;;-0.40;38.70;;;;;;4974728;28;20259;-68
2023/12/02 03:39:01;;;;;;;39.33;22.13;;;-0.40;39.60;;;;;;4976200;28;20224;-68
2023/12/02 03:41:26;;;;;;;26.47;18.33;;;-0.30;39.80;;;;;;4976095;28;20456;-68
2023/12/02 03:43:52;;;;;;;35.37;19.67;;;-0.30;40.00;;;;;;4975818;28;20250;-68
2023/12/02 03:46:17;;;;;;;34.57;20.20;;;-0.30;40.90;;;;;;4975759;28;20263;-68
2023/12/02 03:48:43;;;;;;;35.27;19.90;;;-0.30;40.30;;;;;;4975915;28;20271;-68
2023/12/02 03:51:08;;;;;;;34.53;18.73;;;-0.30;40.30;;;;;;4975988;28;20181;-68
2023/12/02 03:53:36;;;;;;;30.90;18.53;;;-0.30;39.90;;;;;;4975854;28;20177;-68
2023/12/02 03:56:02;;;;;;;35.72;20.02;;;-0.20;40.80;;;;;;4975505;28;20196;-68
2023/12/02 03:58:27;;;;;;;26.48;16.98;;;-0.30;38.90;;;;;;4975595;28;20251;-68
2023/12/02 04:00:55;;;;;;;31.60;17.17;;;-0.30;38.70;;;;;;4975716;28;20177;-68
2023/12/02 04:03:20;;;;;;;32.38;20.75;;;-0.30;38.80;;;;;;4974600;28;20341;-68
2023/12/02 04:05:46;;;;;;;29.07;18.93;;;-0.30;38.80;;;;;;4974999;28;20645;-68
2023/12/02 04:08:11;;;;;;;30.17;17.90;;;-0.40;38.70;;;;;;4975580;28;20563;-68
2023/12/02 04:10:37;;;;;;;30.47;17.90;;;-0.40;39.60;;;;;;4975559;28;20185;-68
2023/12/02 04:13:05;;;;;;;30.90;17.63;;;-0.30;38.80;;;;;;4974118;28;20211;-68
2023/12/02 04:15:31;;;;;;;32.10;20.20;;;-0.40;38.70;;;;;;4975075;28;20203;-68
2023/12/02 04:17:56;;;;;;;34.07;19.00;;;-0.40;38.30;;;;;;4975447;28;20230;-68
2023/12/02 04:20:22;;;;;;;37.23;21.50;;;-0.40;38.40;;;;;;4975404;28;20192;-68
2023/12/02 04:22:47;;;;;;;29.30;18.57;;;-0.30;37.90;;;;;;4975313;28;20685;-68
2023/12/02 04:25:13;;;;;;;30.30;20.10;;;-0.40;37.60;;;;;;4973756;28;20174;-68
2023/12/02 04:27:41;;;;;;;33.93;21.53;;;-0.40;38.70;;;;;;4975385;28;20188;-68
2023/12/02 04:30:08;;;;;;;30.80;18.70;;;-0.50;38.00;;;;;;4973914;28;20515;-68
2023/12/02 04:32:34;;;;;;;24.95;16.45;;;-0.50;38.30;;;;;;4975424;28;20700;-68
2023/12/02 04:34:59;;;;;;;28.97;19.13;;;-0.50;38.50;;;;;;4975277;28;20260;-68
2023/12/02 04:37:25;;;;;;;28.93;17.10;;;-0.50;38.60;;;;;;4975182;28;20213;-68
2023/12/02 04:39:54;;;;;;;24.93;16.30;;;-0.50;38.90;;;;;;4975203;28;20191;-68
2023/12/02 04:42:20;;;;;;;21.88;16.90;;;-0.50;38.60;;;;;;4975523;28;20209;-68
2023/12/02 04:44:45;;;;;;;35.07;18.90;;;-0.50;39.30;;;;;;4974031;28;20208;-68
2023/12/02 04:47:11;;;;;;;21.17;15.17;;;-0.50;39.10;;;;;;4973544;28;20573;-68
2023/12/02 04:49:37;;;;;;;24.90;17.23;;;-0.50;39.70;;;;;;4972887;28;20255;-68
2023/12/02 04:52:03;;;;;;;25.40;17.00;;;-0.50;40.20;;;;;;4974717;28;20727;-68
2023/12/02 04:54:29;;;;;;;28.27;17.15;;;-0.50;39.90;;;;;;4974092;28;20524;-68
2023/12/02 04:56:54;;;;;;;25.00;14.60;;;-0.40;40.70;;;;;;4972769;28;20291;-68
2023/12/02 04:59:20;;;;;;;26.77;15.00;;;-0.40;40.40;;;;;;4973595;28;20649;-68
2023/12/02 05:01:45;;;;;;;24.40;15.37;;;-0.30;41.50;;;;;;4974572;28;20539;-68
2023/12/02 05:04:11;;;;;;;19.27;13.00;;;-0.40;40.40;;;;;;4974151;28;20173;-68
2023/12/02 05:06:38;;;;;;;20.73;14.90;;;-0.40;40.30;;;;;;4973703;28;20184;-68
2023/12/02 05:09:04;;;;;;;20.83;13.63;;;-0.40;40.40;;;;;;4974297;28;20205;-68
2023/12/02 05:11:29;;;;;;;14.27;10.82;;;-0.40;40.70;;;;;;4974304;28;20213;-68
2023/12/02 05:13:55;;;;;;;18.23;11.10;;;-0.30;40.70;;;;;;4974322;28;20208;-68
2023/12/02 05:16:21;;;;;;;25.70;14.30;;;-0.30;39.70;;;;;;4973441;28;20208;-68
2023/12/02 05:18:47;;;;;;;21.97;14.37;;;-0.30;38.70;;;;;;4974061;28;20278;-68
2023/12/02 05:21:13;;;;;;;16.50;11.07;;;-0.30;38.80;;;;;;4974646;28;20170;-68
2023/12/02 05:23:40;;;;;;;20.03;12.70;;;-0.30;40.00;;;;;;4974169;28;20713;-68
2023/12/02 05:26:06;;;;;;;18.42;11.20;;;-0.30;39.50;;;;;;4972647;28;20231;-69
2023/12/02 05:28:32;;;;;;;16.38;11.10;;;-0.30;39.90;;;;;;4974008;28;20189;-68
2023/12/02 05:30:58;;;;;;;17.60;10.63;;;-0.20;40.20;;;;;;4974184;28;20185;-68
2023/12/02 05:33:23;;;;;;;11.73;8.63;;;-0.30;38.80;;;;;;4974401;28;20421;-69
2023/12/02 05:35:50;;;;;;;16.23;10.37;;;-0.30;38.30;;;;;;4988936;28;20192;-68
2023/12/02 05:38:15;;;;;;;17.48;11.07;;;-0.40;37.10;;;;;;4973926;28;20224;-68
2023/12/02 05:40:41;;;;;;;17.37;9.93;;;-0.40;38.10;;;;;;4974307;28;20644;-69
2023/12/02 05:43:07;;;;;;;12.13;8.60;;;-0.40;38.70;;;;;;4973794;28;20543;-69
2023/12/02 05:45:32;;;;;;;13.85;8.88;;;-0.30;38.80;;;;;;4973680;28;20184;-67
2023/12/02 05:47:58;;;;;;;15.73;11.17;;;-0.30;39.10;;;;;;4974007;28;20220;-67
2023/12/02 05:50:24;;;;;;;17.87;11.00;;;-0.40;37.60;;;;;;4973874;28;20262;-67
2023/12/02 05:52:49;;;;;;;14.17;9.47;;;-0.40;37.20;;;;;;4973558;28;20231;-68
2023/12/02 05:55:15;;;;;;;13.90;9.47;;;-0.40;36.60;;;;;;4973415;28;20194;-67
2023/12/02 05:57:43;;;;;;;14.13;9.40;;;-0.50;36.50;;;;;;4973402;28;20215;-68
2023/12/02 06:00:09;;;;;;;17.30;10.40;;;-0.50;36.10;;;;;;4973648;28;20552;-68
2023/12/02 06:02:34;;;;;;;15.20;10.43;;;-0.60;36.30;;;;;;4973592;28;20180;-68
2023/12/02 06:05:00;;;;;;;15.93;10.70;;;-0.60;36.80;;;;;;4972093;28;20421;-68
2023/12/02 06:07:26;;;;;;;15.90;10.47;;;-0.60;37.10;;;;;;4972006;28;20183;-67
2023/12/02 06:09:51;;;;;;;16.20;10.77;;;-0.60;36.80;;;;;;4973177;28;20783;-67
2023/12/02 06:12:17;;;;;;;15.67;11.67;;;-0.60;36.60;;;;;;4973258;28;20670;-67
2023/12/02 06:14:42;;;;;;;15.13;10.10;;;-0.60;36.60;;;;;;4973202;28;20181;-67
2023/12/02 06:17:08;;;;;;;19.23;11.57;;;-0.60;37.00;;;;;;4973027;28;20288;-67
2023/12/02 06:19:34;;;;;;;13.13;8.43;;;-0.60;37.00;;;;;;4973221;28;20287;-68
2023/12/02 06:21:59;;;;;;;17.50;11.33;;;-0.70;37.10;;;;;;4973355;28;20291;-67
2023/12/02 06:24:25;;;;;;;16.70;10.97;;;-0.60;37.00;;;;;;4973243;28;20184;-67
2023/12/02 06:26:50;;;;;;;16.50;10.57;;;-0.70;36.50;;;;;;4973028;28;20182;-68
2023/12/02 06:29:16;;;;;;;15.27;9.53;;;-0.70;37.20;;;;;;4972917;28;20208;-67
2023/12/02 06:31:41;;;;;;;14.53;9.80;;;-0.70;35.70;;;;;;4973004;28;20457;-67
2023/12/02 06:34:07;;;;;;;14.00;10.50;;;-0.80;35.40;;;;;;4972955;28;20605;-68
2023/12/02 06:36:33;;;;;;;15.87;10.83;;;-0.80;35.90;;;;;;4972633;28;20679;-67
2023/12/02 06:38:59;;;;;;;14.27;9.80;;;-0.80;36.30;;;;;;4972833;28;20204;-67
2023/12/02 06:41:24;;;;;;;14.70;10.13;;;-0.90;35.40;;;;;;4972914;28;20170;-67
2023/12/02 06:43:50;;;;;;;12.03;9.77;;;-0.90;35.70;;;;;;4971742;28;20415;-68
2023/12/02 06:46:22;;;;;;;15.97;11.37;;;-0.80;36.80;;;;;;4971488;28;20184;-67
2023/12/02 06:48:51;;;;;;;16.08;10.65;;;-0.70;36.90;;;;;;4972574;28;20595;-67
2023/12/02 06:51:16;;;;;;;15.10;9.73;;;-0.80;36.40;;;;;;4972735;28;20171;-67
2023/12/02 06:53:42;;;;;;;12.67;9.47;;;-0.80;35.90;;;;;;4972839;28;20187;-67
2023/12/02 06:56:18;;;;;;;17.07;11.13;;;-0.90;35.40;;;;;;4972581;28;20696;-67
2023/12/02 06:58:43;;;;;;;16.58;9.70;;;-0.90;36.60;;;;;;4972552;28;20199;-67
2023/12/02 07:01:09;;;;;;;14.63;11.30;;;-0.90;35.60;;;;;;4972543;28;20198;-67
2023/12/02 07:03:37;;;;;;;18.30;11.73;;;-0.90;36.00;;;;;;4972775;28;20679;-68
2023/12/02 07:06:03;;;;;;;15.40;10.15;;;-0.90;35.80;;;;;;4972337;28;20184;-67
2023/12/02 07:08:28;;;;;;;16.23;10.13;;;-0.90;36.40;;;;;;4972632;28;20212;-68
2023/12/02 07:10:54;;;;;;;14.17;10.97;;;-0.90;37.30;;;;;;4972711;28;20250;-67
2023/12/02 07:13:19;;;;;;;14.10;11.07;;;-0.80;37.00;;;;;;4972530;28;20595;-67
2023/12/02 07:15:44;;;;;;;14.83;9.93;;;-0.90;35.30;;;;;;4972214;28;20197;-68
2023/12/02 07:18:10;;;;;;;16.07;10.97;;;-0.90;34.60;;;;;;4972490;28;20208;-68
2023/12/02 07:20:36;;;;;;;12.70;8.47;;;-1.00;34.00;;;;;;4973062;28;20173;-67
2023/12/02 07:23:02;;;;;;;17.63;11.30;;;-1.00;35.10;;;;;;4972534;28;20259;-68
2023/12/02 07:25:28;;;;;;;15.50;9.80;;;-0.90;35.50;;;;;;4972369;28;20181;-67
2023/12/02 07:27:53;;;;;;;18.13;10.90;;;-0.90;36.20;;;;;;4972627;28;20283;-68
2023/12/02 07:30:19;;;;;;;13.57;9.80;;;-0.90;35.80;;;;;;4972538;28;20276;-68
2023/12/02 07:32:46;;;;;;;14.50;9.80;;;-0.80;36.20;;;;;;4972449;28;20184;-67
2023/12/02 07:35:11;;;;;;;15.27;11.30;;;-0.90;34.70;;;;;;4970811;28;20180;-68
2023/12/02 07:37:37;;;;;;;18.03;11.33;;;-0.90;35.40;;;;;;4972443;28;20593;-68
2023/12/02 07:40:03;;;;;;;18.23;11.83;;;-0.90;35.60;;;;;;4973277;28;20179;-68
2023/12/02 07:42:29;;;;;;;17.45;10.88;;;-0.80;36.00;;;;;;4976032;28;20176;-68
2023/12/02 07:44:54;;;;;;;12.20;9.60;;;-0.80;36.90;;;;;;4975862;28;20762;-67
2023/12/02 07:47:20;;;;;;;14.40;11.70;;;-0.90;35.50;;;;;;4975425;28;20178;-67
2023/12/02 07:49:46;;;;;;;14.32;9.73;;;-0.90;35.10;;;;;;4974289;28;20326;-67
2023/12/02 07:52:12;;;;;;;14.60;10.83;;;-0.90;35.70;;;;;;4974428;28;20615;-68
2023/12/02 07:54:37;;;;;;;14.30;10.97;;;-0.90;36.00;;;;;;4975644;28;20264;-67
2023/12/02 07:57:03;;;;;;;12.87;9.40;;;-0.80;37.40;;;;;;4975384;28;20208;-67
2023/12/02 07:59:29;;;;;;;12.83;8.17;;;-0.80;36.60;;;;;;4974231;28;20262;-67
2023/12/02 08:01:54;;;;;;;14.73;9.97;;;-0.80;35.80;;;;;;4975606;28;20912;-67
2023/12/02 08:04:20;;;;;;;13.20;9.67;;;-0.80;35.20;;;;;;4975508;28;20261;-67
2023/12/02 08:06:45;;;;;;;13.20;9.97;;;-0.80;34.60;;;;;;4975373;28;20216;-67
2023/12/02 08:09:14;;;;;;;14.27;10.23;;;-0.80;34.90;;;;;;4975567;28;20197;-67
2023/12/02 08:11:40;;;;;;;15.32;11.60;;;-0.80;34.10;;;;;;4975422;28;20211;-67
2023/12/02 08:14:06;;;;;;;12.13;9.70;;;-0.70;34.40;;;;;;4983418;28;20189;-67
2023/12/02 08:16:31;;;;;;;13.13;10.40;;;-0.70;34.50;;;;;;4983045;28;20963;-67
2023/12/02 08:18:57;;;;;;;15.27;10.07;;;-0.60;33.50;;;;;;4975494;28;20683;-67
2023/12/02 08:21:22;;;;;;;15.47;10.40;;;-0.80;29.70;;;;;;4975154;28;20551;-67
2023/12/02 08:23:49;;;;;;;15.67;10.00;;;-0.80;29.90;;;;;;4978713;28;20262;-67
2023/12/02 08:26:15;;;;;;;14.85;10.25;;;-0.80;29.90;;;;;;4974544;28;20239;-67
2023/12/02 08:28:40;;;;;;;19.03;13.13;;;-0.80;30.40;;;;;;4974335;28;20203;-67
2023/12/02 08:31:06;;;;;;;16.27;11.00;;;-0.80;29.30;;;;;;4975126;28;20192;-67
2023/12/02 08:33:31;;;;;;;15.00;11.67;;;-0.80;29.00;;;;;;4974923;28;20526;-67
2023/12/02 08:35:57;;;;;;;14.03;10.57;;;-0.90;27.60;;;;;;4974514;28;20212;-67
2023/12/02 08:38:22;;;;;;;18.90;11.33;;;-0.80;28.70;;;;;;4972427;28;20579;-67
2023/12/02 08:40:49;;;;;;;15.67;10.27;;;-0.70;28.40;;;;;;4975147;28;20185;-67
2023/12/02 08:43:15;;;;;;;13.80;10.05;;;-0.70;26.10;;;;;;4972392;28;20545;-67
2023/12/02 08:45:40;;;;;;;14.20;10.23;;;-0.90;25.40;;;;;;4957582;28;20193;-67
2023/12/02 08:48:06;;;;;;;18.40;13.13;;;-0.80;24.70;;;;;;4954390;28;20456;-67
2023/12/02 08:50:32;;;;;;;17.17;11.73;;;-0.80;25.30;;;;;;4954855;28;20170;-67
2023/12/02 08:52:57;;;;;;;19.60;11.83;;;-0.90;25.50;;;;;;4954250;29;20178;-66
2023/12/02 08:55:23;;;;;;;18.80;12.00;;;-0.90;24.60;;;;;;4955303;29;20169;-67
2023/12/02 08:57:48;;;;;;;15.37;10.60;;;-0.90;25.80;;;;;;4955235;28;20216;-66
2023/12/02 09:00:14;;;;;;;17.33;11.87;;;-1.00;25.40;;;;;;4955362;29;20180;-67
2023/12/02 09:02:39;;;;;;;17.10;12.37;;;-1.00;25.40;;;;;;4955095;29;20671;-67
2023/12/02 09:05:05;;;;;;;17.43;12.27;;;-1.00;26.60;;;;;;4955086;29;20421;-68
2023/12/02 09:07:31;;;;;;;18.90;13.23;;;-1.00;26.60;;;;;;4953729;28;20184;-68
2023/12/02 09:09:57;;;;;;;18.77;12.10;;;-0.90;27.50;;;;;;4953845;29;20189;-68
2023/12/02 09:12:23;;;;;;;20.00;12.88;;;-1.00;25.80;;;;;;4955078;29;20720;-68
2023/12/02 09:15:20;;;;;;;21.37;13.30;;;-1.00;26.30;;;;;;4953773;29;20232;-68
2023/12/02 09:17:51;;;;;;;16.08;12.20;;;-1.00;26.10;;;;;;4954559;28;20306;-68
2023/12/02 09:20:46;;;;;;;17.75;13.93;;;-1.00;25.60;;;;;;4954808;29;20217;-68
2023/12/02 09:23:14;;;;;;;19.33;12.23;;;-0.90;26.60;;;;;;4954835;29;20194;-67
2023/12/02 09:25:41;;;;;;;15.48;9.95;;;-0.90;24.60;;;;;;4954661;28;20184;-66
2023/12/02 09:28:07;;;;;;;19.98;12.18;;;-1.00;24.60;;;;;;4954772;28;20197;-67
2023/12/02 09:30:34;;;;;;;16.50;13.13;;;-0.90;24.60;;;;;;4954929;29;20183;-67
2023/12/02 09:33:00;;;;;;;21.73;14.18;;;-0.90;26.00;;;;;;4955018;28;20175;-66
2023/12/02 09:35:26;;;;;;;19.52;11.55;;;-0.90;25.40;;;;;;4954949;28;20550;-70
2023/12/02 09:37:52;;;;;;;16.05;11.00;;;-0.90;24.60;;;;;;4954769;28;20228;-66
2023/12/02 09:40:36;;;;;;;17.30;11.93;;;-0.70;24.70;;;;;;4954393;29;20186;-67
2023/12/02 09:43:25;;;;;;;18.75;11.73;;;-0.80;22.20;;;;;;4954793;29;20241;-67
2023/12/02 09:46:18;;;;;;;18.70;14.27;;;-0.80;22.60;;;;;;4954512;28;20196;-67
2023/12/02 09:48:53;;;;;;;18.67;11.98;;;-0.70;21.90;;;;;;4986924;22;20243;-70
2023/12/02 09:51:59;;;;;;;23.23;14.95;;;-0.80;20.70;;;;;;5008580;28;20191;-68
2023/12/02 09:54:36;;;;;;;18.08;12.77;;;-0.90;21.80;;;;;;4990696;28;20681;-70
2023/12/02 09:57:27;;;;;;;16.80;11.38;;;-1.00;22.80;;;;;;5008119;28;20216;-69
2023/12/02 10:00:12;;;;;;;17.77;12.82;;;-1.00;23.60;;;;;;5008887;28;20195;-68
2023/12/02 10:03:08;;;;;;;16.92;11.43;;;-1.00;22.60;;;;;;5009090;28;20200;-68
2023/12/02 10:05:48;;;;;;;18.70;11.52;;;-1.10;22.80;;;;;;5008561;28;20706;-68
2023/12/02 10:08:22;;;;;;;21.17;12.77;;;-1.00;23.60;;;;;;5008569;28;20201;-68
2023/12/02 10:11:08;;;;;;;27.35;13.80;;;-1.00;23.20;;;;;;5007110;28;20277;-68
2023/12/02 10:13:52;;;;;;;18.92;12.48;;;-1.10;23.90;;;;;;5008843;28;20565;-68
2023/12/02 10:16:21;;;;;;;20.95;13.00;;;-1.00;23.60;;;;;;5008073;28;20720;-69
2023/12/02 10:18:57;;;;;;;17.80;12.55;;;-1.00;23.70;;;;;;5008734;28;20208;-69
2023/12/02 10:21:23;;;;;;;20.65;11.95;;;-0.90;24.60;;;;;;5007688;28;20198;-69
2023/12/02 10:24:10;;;;;;;20.17;12.57;;;-0.80;24.00;;;;;;5008258;28;20202;-70
2023/12/02 10:26:51;;;;;;;12.82;11.00;;;-0.70;23.50;;;;;;5009447;28;20191;-68
2023/12/02 10:29:33;;;;;;;25.52;14.40;;;-0.70;22.20;;;;;;5011013;28;20696;-69
2023/12/02 10:32:17;;;;;;;17.65;11.15;;;-0.50;22.80;;;;;;5011190;28;20186;-69
2023/12/02 10:35:01;;;;;;;21.23;14.30;;;-0.40;22.80;;;;;;5011504;28;20662;-68
2023/12/02 10:37:37;;;;;;;15.80;11.25;;;-0.30;21.50;;;;;;5011055;28;20210;-69
2023/12/02 10:40:09;;;;;;;19.38;12.05;;;-0.40;20.80;;;;;;5012413;28;20186;-68
2023/12/02 10:42:55;;;;;;;15.30;10.45;;;-0.30;19.80;;;;;;5010989;28;20194;-67
2023/12/02 10:45:24;;;;;;;18.85;11.48;;;-0.50;16.80;;;;;;5012596;28;20203;-69
2023/12/02 10:47:52;;;;;;;14.40;9.35;;;-0.40;20.50;;;;;;5012355;28;20179;-69
2023/12/02 10:50:18;;;;;;;14.82;9.68;;;-0.40;19.30;;;;;;5012267;28;20226;-69
2023/12/02 10:53:05;;;;;;;13.70;9.57;;;-0.50;18.00;;;;;;5012356;28;20192;-69
2023/12/02 10:55:35;;;;;;;15.48;10.23;;;-0.60;18.40;;;;;;5012231;28;20241;-70
2023/12/02 10:58:04;;;;;;;13.38;10.13;;;-0.60;19.00;;;;;;5011156;28;20203;-69
2023/12/02 11:00:35;;;;;;;11.13;8.05;;;-0.70;19.50;;;;;;5012359;28;20170;-70
2023/12/02 11:03:38;;;;;;;13.73;9.27;;;-0.70;20.60;;;;;;5012529;28;20222;-70
2023/12/02 11:06:05;;;;;;;12.98;10.18;;;-0.60;17.60;;;;;;5011896;28;20683;-70
2023/12/02 11:08:59;;;;;;;11.50;8.65;;;-0.70;18.00;;;;;;5012332;28;20212;-68
2023/12/02 11:11:49;;;;;;;12.68;8.75;;;-0.70;18.10;;;;;;5011867;28;20194;-69
2023/12/02 11:14:20;;;;;;;14.73;8.35;;;-0.80;17.50;;;;;;4992739;28;20191;-68
2023/12/02 11:17:06;;;;;;;13.43;9.10;;;-0.80;16.80;;;;;;4997441;28;20200;-70
2023/12/02 11:20:12;;;;;;;17.02;9.30;;;-0.70;18.30;;;;;;4996984;28;20199;-70
2023/12/02 11:23:15;;;;;;;17.80;10.85;;;-0.70;18.00;;;;;;4995990;28;20251;-69
2023/12/02 11:26:21;;;;;;;11.05;9.73;;;-0.60;18.20;;;;;;4996747;28;20180;-70
2023/12/02 11:29:10;;;;;;;15.90;10.57;;;-0.50;18.00;;;;;;4995754;28;20298;-69
2023/12/02 11:32:14;;;;;;;12.65;9.60;;;-0.40;17.60;;;;;;4997275;28;20205;-69
2023/12/02 11:35:10;;;;;;;14.65;9.20;;;-0.50;16.60;;;;;;4995927;28;20183;-69
2023/12/02 11:37:56;;;;;;;14.07;9.65;;;-0.40;15.90;;;;;;4996026;28;20239;-69
2023/12/02 11:40:43;;;;;;;12.35;8.77;;;-0.40;15.70;;;;;;4996691;28;20258;-70
2023/12/02 11:43:38;;;;;;;16.48;9.68;;;-0.60;13.60;;;;;;4996975;28;20176;-70
2023/12/02 11:46:07;;;;;;;11.73;8.55;;;-0.60;14.60;;;;;;4996528;28;20262;-70
2023/12/02 11:48:57;;;;;;;16.35;10.48;;;-0.70;14.40;;;;;;4996401;28;20238;-69
2023/12/02 11:51:37;;;;;;;13.75;9.65;;;-0.70;16.50;;;;;;4996419;28;20206;-69
2023/12/02 11:54:25;;;;;;;17.42;11.60;;;-0.80;16.50;;;;;;4996696;28;20177;-69
2023/12/02 11:57:09;;;;;;;14.18;10.82;;;-0.70;17.20;;;;;;4996319;28;20205;-69
2023/12/02 11:59:48;;;;;;;13.70;9.52;;;-0.70;17.30;;;;;;4994829;28;20199;-68
2023/12/02 12:02:34;;;;;;;11.57;10.18;;;-0.70;16.50;;;;;;4995666;28;20177;-68
2023/12/02 12:05:21;;;;;;;12.80;8.95;;;-0.70;16.50;;;;;;4975103;28;20184;-68
2023/12/02 12:08:10;;;;;;;14.52;9.60;;;-0.70;17.40;;;;;;4995912;28;20674;-69
2023/12/02 12:10:38;;;;;;;14.95;10.48;;;-0.60;17.60;;;;;;4994120;28;20678;-68
2023/12/02 12:13:04;;;;;;;12.00;9.02;;;-0.70;17.30;;;;;;4995436;28;20238;-68
2023/12/02 12:15:30;;;;;;;13.50;9.63;;;-0.60;17.20;;;;;;4995444;28;20188;-68
2023/12/02 12:17:56;;;;;;;15.60;10.48;;;-0.70;17.00;;;;;;4995099;28;20694;-69
2023/12/02 12:20:24;;;;;;;14.83;10.50;;;-0.70;16.50;;;;;;4995195;28;20184;-69
2023/12/02 12:22:50;;;;;;;14.60;9.82;;;-0.70;17.30;;;;;;4995316;28;20550;-70
2023/12/02 12:25:15;;;;;;;16.10;10.53;;;-0.80;16.40;;;;;;4995039;28;20251;-70
2023/12/02 12:27:41;;;;;;;15.50;10.67;;;-1.00;16.30;;;;;;4995133;28;20184;-69
2023/12/02 12:30:08;;;;;;;13.00;9.30;;;-1.00;17.30;;;;;;4994485;28;20204;-69
2023/12/02 12:32:33;;;;;;;18.17;10.68;;;-1.00;17.00;;;;;;4994005;28;20433;-70
2023/12/02 12:34:59;;;;;;;14.60;10.20;;;-1.00;18.30;;;;;;4995223;28;20262;-69
2023/12/02 12:37:25;;;;;;;18.63;10.93;;;-0.90;16.50;;;;;;4995157;28;20196;-68
2023/12/02 12:39:51;;;;;;;14.27;10.20;;;-1.00;17.10;;;;;;4995224;28;20211;-67
2023/12/02 12:42:17;;;;;;;15.85;9.77;;;-0.90;16.70;;;;;;5010486;28;20230;-68